sensor_id;sensor_type;location;lat;lon;timestamp;P1;durP1;ratioP1;P2;durP2;ratioP2
16430;SDS011;8325;49.284;7.238;2023-03-24T05:00:55;9.07;;;7.00;;
16430;SDS011;8325;49.284;7.238;2023-03-24T05:05:12;10.75;;;7.88;;
16430;SDS011;8325;49.284;7.238;2023-03-24T05:09:30;11.05;;;7.47;;
16430;SDS011;8325;49.284;7.238;2023-03-24T05:13:43;9.25;;;6.60;;
16430;SDS011;8325;49.284;7.238;2023-03-24T05:17:58;10.30;;;7.72;;
16430;SDS011;8325;49.284;7.238;2023-03-24T05:22:10;12.25;;;8.50;;
16430;SDS011;8325;49.284;7.238;2023-03-24T05:26:22;11.43;;;7.78;;
16430;SDS011;8325;49.284;7.238;2023-03-24T05:30:47;12.13;;;8.70;;
16430;SDS011;8325;49.284;7.238;2023-03-24T05:35:46;11.85;;;9.25;;
16430;SDS011;8325;49.284;7.238;2023-03-24T05:39:59;12.25;;;9.55;;
16430;SDS011;8325;49.284;7.238;2023-03-24T05:44:21;12.85;;;10.20;;
16430;SDS011;8325;49.284;7.238;2023-03-24T05:48:53;13.40;;;10.27;;
16430;SDS011;8325;49.284;7.238;2023-03-24T05:53:08;11.10;;;9.05;;
16430;SDS011;8325;49.284;7.238;2023-03-24T05:57:39;13.45;;;9.45;;
16430;SDS011;8325;49.284;7.238;2023-03-24T06:02:11;10.55;;;8.38;;
16430;SDS011;8325;49.284;7.238;2023-03-24T06:06:39;11.38;;;7.63;;
16430;SDS011;8325;49.284;7.238;2023-03-24T06:10:51;12.20;;;8.48;;
16430;SDS011;8325;49.284;7.238;2023-03-24T06:15:05;11.13;;;8.05;;
16430;SDS011;8325;49.284;7.238;2023-03-24T06:19:19;10.52;;;7.90;;
16430;SDS011;8325;49.284;7.238;2023-03-24T06:23:54;8.68;;;7.22;;
16430;SDS011;8325;49.284;7.238;2023-03-24T06:28:13;10.18;;;7.35;;
16430;SDS011;8325;49.284;7.238;2023-03-24T06:32:27;8.07;;;6.90;;
16430;SDS011;8325;49.284;7.238;2023-03-24T06:36:39;10.77;;;8.05;;
16430;SDS011;8325;49.284;7.238;2023-03-24T06:40:52;10.13;;;7.70;;
16430;SDS011;8325;49.284;7.238;2023-03-24T06:45:04;12.15;;;8.48;;
16430;SDS011;8325;49.284;7.238;2023-03-24T06:49:16;9.18;;;7.28;;
16430;SDS011;8325;49.284;7.238;2023-03-24T06:53:28;10.68;;;7.43;;
16430;SDS011;8325;49.284;7.238;2023-03-24T06:57:40;8.70;;;7.38;;
16430;SDS011;8325;49.284;7.238;2023-03-24T07:02:12;10.60;;;8.20;;
16430;SDS011;8325;49.284;7.238;2023-03-24T07:06:27;9.95;;;7.07;;
16430;SDS011;8325;49.284;7.238;2023-03-24T07:10:45;10.15;;;7.28;;
16430;SDS011;8325;49.284;7.238;2023-03-24T07:14:58;10.23;;;7.03;;
16430;SDS011;8325;49.284;7.238;2023-03-24T07:19:10;8.32;;;6.75;;
16430;SDS011;8325;49.284;7.238;2023-03-24T07:23:24;8.98;;;6.78;;
16430;SDS011;8325;49.284;7.238;2023-03-24T07:27:46;10.00;;;6.88;;
16430;SDS011;8325;49.284;7.238;2023-03-24T07:31:58;8.63;;;6.43;;
16430;SDS011;8325;49.284;7.238;2023-03-24T07:36:11;8.80;;;6.53;;
16430;SDS011;8325;49.284;7.238;2023-03-24T07:40:24;9.07;;;6.30;;
16430;SDS011;8325;49.284;7.238;2023-03-24T07:44:35;6.53;;;5.75;;
16430;SDS011;8325;49.284;7.238;2023-03-24T07:48:48;7.32;;;6.03;;
16430;SDS011;8325;49.284;7.238;2023-03-24T07:53:01;7.57;;;5.70;;
16430;SDS011;8325;49.284;7.238;2023-03-24T07:57:14;6.25;;;4.82;;
16430;SDS011;8325;49.284;7.238;2023-03-24T08:01:26;5.88;;;4.90;;
16430;SDS011;8325;49.284;7.238;2023-03-24T08:05:41;6.97;;;5.05;;
16430;SDS011;8325;49.284;7.238;2023-03-24T08:10:12;6.50;;;5.57;;
16430;SDS011;8325;49.284;7.238;2023-03-24T08:14:25;7.53;;;5.85;;
16430;SDS011;8325;49.284;7.238;2023-03-24T08:18:37;5.65;;;4.95;;
16430;SDS011;8325;49.284;7.238;2023-03-24T08:22:48;5.22;;;4.72;;
16430;SDS011;8325;49.284;7.238;2023-03-24T08:27:00;6.05;;;4.75;;
16430;SDS011;8325;49.284;7.238;2023-03-24T08:31:16;6.15;;;4.50;;
16430;SDS011;8325;49.284;7.238;2023-03-24T08:35:32;6.40;;;4.70;;
16430;SDS011;8325;49.284;7.238;2023-03-24T08:39:45;4.93;;;4.45;;
16430;SDS011;8325;49.284;7.238;2023-03-24T08:43:58;5.35;;;4.70;;
16430;SDS011;8325;49.284;7.238;2023-03-24T08:48:10;8.05;;;4.63;;
16430;SDS011;8325;49.284;7.238;2023-03-24T08:52:21;4.88;;;4.15;;
16430;SDS011;8325;49.284;7.238;2023-03-24T08:56:33;6.07;;;4.22;;
16430;SDS011;8325;49.284;7.238;2023-03-24T09:00:46;5.80;;;4.78;;
16430;SDS011;8325;49.284;7.238;2023-03-24T09:04:58;4.40;;;4.00;;
16430;SDS011;8325;49.284;7.238;2023-03-24T09:09:10;4.90;;;4.22;;
16430;SDS011;8325;49.284;7.238;2023-03-24T09:13:22;5.97;;;4.18;;
16430;SDS011;8325;49.284;7.238;2023-03-24T09:17:34;3.83;;;3.38;;
16430;SDS011;8325;49.284;7.238;2023-03-24T09:21:46;4.00;;;3.60;;
16430;SDS011;8325;49.284;7.238;2023-03-24T09:25:58;5.72;;;4.05;;
16430;SDS011;8325;49.284;7.238;2023-03-24T09:30:12;5.40;;;4.25;;
16430;SDS011;8325;49.284;7.238;2023-03-24T09:34:25;4.18;;;3.50;;
16430;SDS011;8325;49.284;7.238;2023-03-24T09:38:37;1.55;;;1.35;;
16430;SDS011;8325;49.284;7.238;2023-03-24T09:42:50;1.77;;;1.20;;
16430;SDS011;8325;49.284;7.238;2023-03-24T09:47:26;1.38;;;1.00;;
16430;SDS011;8325;49.284;7.238;2023-03-24T09:51:48;0.70;;;0.70;;
16430;SDS011;8325;49.284;7.238;2023-03-24T09:56:20;1.52;;;1.23;;
16430;SDS011;8325;49.284;7.238;2023-03-24T10:00:33;1.20;;;1.10;;
16430;SDS011;8325;49.284;7.238;2023-03-24T10:04:47;2.47;;;1.30;;
16430;SDS011;8325;49.284;7.238;2023-03-24T10:13:21;4.07;;;1.73;;
16430;SDS011;8325;49.284;7.238;2023-03-24T10:30:43;1.95;;;1.27;;
16430;SDS011;8325;49.284;7.238;2023-03-24T10:35:00;2.92;;;1.30;;
16430;SDS011;8325;49.284;7.238;2023-03-24T10:39:19;2.95;;;1.20;;
16430;SDS011;8325;49.284;7.238;2023-03-24T10:43:44;3.20;;;1.48;;
16430;SDS011;8325;49.284;7.238;2023-03-24T10:47:57;3.00;;;1.35;;
16430;SDS011;8325;49.284;7.238;2023-03-24T10:52:12;2.97;;;1.30;;
16430;SDS011;8325;49.284;7.238;2023-03-24T10:56:37;4.10;;;1.33;;
16430;SDS011;8325;49.284;7.238;2023-03-24T11:00:53;3.00;;;1.63;;
16430;SDS011;8325;49.284;7.238;2023-03-24T11:09:21;2.70;;;1.42;;
16430;SDS011;8325;49.284;7.238;2023-03-24T11:13:33;3.45;;;1.45;;
16430;SDS011;8325;49.284;7.238;2023-03-24T11:17:45;3.22;;;1.40;;
16430;SDS011;8325;49.284;7.238;2023-03-24T11:22:01;3.40;;;1.60;;
16430;SDS011;8325;49.284;7.238;2023-03-24T11:26:22;1.63;;;1.30;;
16430;SDS011;8325;49.284;7.238;2023-03-24T11:30:50;3.13;;;1.50;;
16430;SDS011;8325;49.284;7.238;2023-03-24T11:35:06;4.55;;;1.77;;
16430;SDS011;8325;49.284;7.238;2023-03-24T11:39:24;3.92;;;1.50;;
16430;SDS011;8325;49.284;7.238;2023-03-24T11:43:37;3.15;;;1.73;;
16430;SDS011;8325;49.284;7.238;2023-03-24T11:47:49;4.43;;;1.67;;
16430;SDS011;8325;49.284;7.238;2023-03-24T11:52:03;2.53;;;1.70;;
16430;SDS011;8325;49.284;7.238;2023-03-24T11:57:25;4.28;;;1.50;;
16430;SDS011;8325;49.284;7.238;2023-03-24T12:05:31;2.42;;;1.40;;
16430;SDS011;8325;49.284;7.238;2023-03-24T12:10:04;2.90;;;1.30;;
16430;SDS011;8325;49.284;7.238;2023-03-24T12:41:54;1.35;;;1.00;;
16430;SDS011;8325;49.284;7.238;2023-03-24T12:55:29;2.72;;;1.20;;
16430;SDS011;8325;49.284;7.238;2023-03-24T12:59:50;3.00;;;0.95;;
16430;SDS011;8325;49.284;7.238;2023-03-24T13:04:21;2.78;;;1.02;;
16430;SDS011;8325;49.284;7.238;2023-03-24T13:08:44;2.97;;;1.40;;
16430;SDS011;8325;49.284;7.238;2023-03-24T13:13:18;3.13;;;1.20;;
16430;SDS011;8325;49.284;7.238;2023-03-24T13:17:34;3.03;;;1.10;;
16430;SDS011;8325;49.284;7.238;2023-03-24T13:21:50;2.78;;;1.10;;
16430;SDS011;8325;49.284;7.238;2023-03-24T13:26:07;1.67;;;0.90;;
16430;SDS011;8325;49.284;7.238;2023-03-24T13:30:27;2.88;;;1.00;;
16430;SDS011;8325;49.284;7.238;2023-03-24T13:39:14;2.45;;;0.90;;
16430;SDS011;8325;49.284;7.238;2023-03-24T13:43:31;1.75;;;0.93;;
16430;SDS011;8325;49.284;7.238;2023-03-24T13:47:48;2.65;;;1.20;;
16430;SDS011;8325;49.284;7.238;2023-03-24T13:52:25;2.50;;;1.23;;
16430;SDS011;8325;49.284;7.238;2023-03-24T13:56:46;4.07;;;1.65;;
16430;SDS011;8325;49.284;7.238;2023-03-24T14:05:28;2.40;;;0.80;;
16430;SDS011;8325;49.284;7.238;2023-03-24T14:14:26;1.45;;;0.80;;
16430;SDS011;8325;49.284;7.238;2023-03-24T14:18:40;2.70;;;1.00;;
16430;SDS011;8325;49.284;7.238;2023-03-24T14:22:52;1.42;;;0.88;;
16430;SDS011;8325;49.284;7.238;2023-03-24T14:31:42;2.42;;;0.88;;
16430;SDS011;8325;49.284;7.238;2023-03-24T14:36:10;3.15;;;1.08;;
16430;SDS011;8325;49.284;7.238;2023-03-24T14:40:35;4.93;;;0.90;;
16430;SDS011;8325;49.284;7.238;2023-03-24T14:44:51;3.67;;;2.55;;
16430;SDS011;8325;49.284;7.238;2023-03-24T14:53:34;3.05;;;1.00;;
16430;SDS011;8325;49.284;7.238;2023-03-24T14:57:52;3.85;;;1.23;;
16430;SDS011;8325;49.284;7.238;2023-03-24T15:02:26;4.07;;;2.20;;
16430;SDS011;8325;49.284;7.238;2023-03-24T15:06:46;9.07;;;5.40;;
16430;SDS011;8325;49.284;7.238;2023-03-24T15:11:00;3.88;;;1.98;;
16430;SDS011;8325;49.284;7.238;2023-03-24T15:15:23;4.75;;;1.30;;
16430;SDS011;8325;49.284;7.238;2023-03-24T15:19:35;3.83;;;1.20;;
16430;SDS011;8325;49.284;7.238;2023-03-24T15:23:47;2.05;;;0.80;;
16430;SDS011;8325;49.284;7.238;2023-03-24T15:27:59;2.15;;;0.70;;
16430;SDS011;8325;49.284;7.238;2023-03-24T15:32:18;1.50;;;0.80;;
16430;SDS011;8325;49.284;7.238;2023-03-24T15:36:37;4.55;;;3.35;;
16430;SDS011;8325;49.284;7.238;2023-03-24T15:40:51;3.55;;;0.95;;
16430;SDS011;8325;49.284;7.238;2023-03-24T15:45:10;2.58;;;1.30;;
16430;SDS011;8325;49.284;7.238;2023-03-24T15:49:32;2.70;;;0.90;;
16430;SDS011;8325;49.284;7.238;2023-03-24T15:53:46;9.18;;;3.58;;
16430;SDS011;8325;49.284;7.238;2023-03-24T16:02:34;3.05;;;0.98;;
16430;SDS011;8325;49.284;7.238;2023-03-24T16:06:52;2.15;;;0.80;;
16430;SDS011;8325;49.284;7.238;2023-03-24T16:11:05;2.05;;;0.85;;
16430;SDS011;8325;49.284;7.238;2023-03-24T16:15:21;2.35;;;1.20;;
16430;SDS011;8325;49.284;7.238;2023-03-24T16:19:33;1.45;;;0.88;;
16430;SDS011;8325;49.284;7.238;2023-03-24T16:23:45;2.63;;;1.05;;
16430;SDS011;8325;49.284;7.238;2023-03-24T16:27:57;3.90;;;0.90;;
16430;SDS011;8325;49.284;7.238;2023-03-24T16:32:09;2.95;;;1.00;;
16430;SDS011;8325;49.284;7.238;2023-03-24T16:36:21;3.08;;;0.80;;
16430;SDS011;8325;49.284;7.238;2023-03-24T16:40:38;2.53;;;0.80;;
16430;SDS011;8325;49.284;7.238;2023-03-24T16:44:51;2.72;;;0.90;;
16430;SDS011;8325;49.284;7.238;2023-03-24T16:49:04;2.00;;;0.90;;
16430;SDS011;8325;49.284;7.238;2023-03-24T16:53:17;2.83;;;1.00;;
16430;SDS011;8325;49.284;7.238;2023-03-24T16:57:29;4.45;;;1.00;;
16430;SDS011;8325;49.284;7.238;2023-03-24T17:01:41;2.95;;;1.00;;
16430;SDS011;8325;49.284;7.238;2023-03-24T17:05:56;4.07;;;0.98;;
16430;SDS011;8325;49.284;7.238;2023-03-24T17:10:08;5.13;;;0.98;;
16430;SDS011;8325;49.284;7.238;2023-03-24T17:14:19;3.42;;;0.93;;
16430;SDS011;8325;49.284;7.238;2023-03-24T17:18:32;2.78;;;0.70;;
16430;SDS011;8325;49.284;7.238;2023-03-24T17:22:43;2.80;;;1.15;;
16430;SDS011;8325;49.284;7.238;2023-03-24T17:26:56;2.58;;;1.10;;
16430;SDS011;8325;49.284;7.238;2023-03-24T17:31:08;3.28;;;1.10;;
16430;SDS011;8325;49.284;7.238;2023-03-24T17:35:20;4.25;;;1.10;;
16430;SDS011;8325;49.284;7.238;2023-03-24T17:39:33;3.45;;;1.10;;
16430;SDS011;8325;49.284;7.238;2023-03-24T17:43:46;1.63;;;1.23;;
16430;SDS011;8325;49.284;7.238;2023-03-24T17:47:58;3.30;;;1.30;;
16430;SDS011;8325;49.284;7.238;2023-03-24T17:52:10;4.93;;;1.50;;
16430;SDS011;8325;49.284;7.238;2023-03-24T17:56:21;5.35;;;1.58;;
16430;SDS011;8325;49.284;7.238;2023-03-24T18:00:33;3.33;;;1.40;;
16430;SDS011;8325;49.284;7.238;2023-03-24T18:04:44;4.75;;;1.27;;
16430;SDS011;8325;49.284;7.238;2023-03-24T18:08:57;3.58;;;1.63;;
16430;SDS011;8325;49.284;7.238;2023-03-24T18:13:09;5.75;;;2.60;;
16430;SDS011;8325;49.284;7.238;2023-03-24T18:17:21;7.93;;;3.55;;
16430;SDS011;8325;49.284;7.238;2023-03-24T18:21:33;8.15;;;3.38;;
16430;SDS011;8325;49.284;7.238;2023-03-24T18:25:45;3.70;;;1.77;;
16430;SDS011;8325;49.284;7.238;2023-03-24T18:29:57;4.00;;;2.03;;
16430;SDS011;8325;49.284;7.238;2023-03-24T18:34:08;3.65;;;1.65;;
16430;SDS011;8325;49.284;7.238;2023-03-24T18:38:20;2.83;;;1.40;;
16430;SDS011;8325;49.284;7.238;2023-03-24T18:42:32;3.72;;;2.00;;
16430;SDS011;8325;49.284;7.238;2023-03-24T18:46:44;2.60;;;0.70;;
16430;SDS011;8325;49.284;7.238;2023-03-24T18:50:56;2.88;;;1.65;;
16430;SDS011;8325;49.284;7.238;2023-03-24T18:55:08;7.78;;;4.40;;
16430;SDS011;8325;49.284;7.238;2023-03-24T18:59:20;5.13;;;3.03;;
16430;SDS011;8325;49.284;7.238;2023-03-24T19:03:31;4.55;;;2.15;;
16430;SDS011;8325;49.284;7.238;2023-03-24T19:07:45;12.18;;;9.07;;
16430;SDS011;8325;49.284;7.238;2023-03-24T19:11:58;2.50;;;1.48;;
16430;SDS011;8325;49.284;7.238;2023-03-24T19:16:10;2.63;;;1.48;;
16430;SDS011;8325;49.284;7.238;2023-03-24T19:20:23;2.25;;;1.10;;
16430;SDS011;8325;49.284;7.238;2023-03-24T19:24:36;3.70;;;1.90;;
16430;SDS011;8325;49.284;7.238;2023-03-24T19:28:47;2.30;;;1.52;;
16430;SDS011;8325;49.284;7.238;2023-03-24T19:32:59;4.90;;;3.38;;
16430;SDS011;8325;49.284;7.238;2023-03-24T19:37:11;4.13;;;2.97;;
16430;SDS011;8325;49.284;7.238;2023-03-24T19:41:24;4.47;;;1.35;;
16430;SDS011;8325;49.284;7.238;2023-03-24T19:45:36;1.27;;;0.75;;
16430;SDS011;8325;49.284;7.238;2023-03-24T19:49:52;0.95;;;0.77;;
16430;SDS011;8325;49.284;7.238;2023-03-24T19:54:06;3.88;;;0.90;;
16430;SDS011;8325;49.284;7.238;2023-03-24T19:58:18;1.35;;;1.05;;
16430;SDS011;8325;49.284;7.238;2023-03-24T20:02:30;1.23;;;1.00;;
16430;SDS011;8325;49.284;7.238;2023-03-24T20:06:41;3.83;;;1.73;;
16430;SDS011;8325;49.284;7.238;2023-03-24T20:10:56;2.58;;;1.02;;
16430;SDS011;8325;49.284;7.238;2023-03-24T20:15:08;2.97;;;1.08;;
16430;SDS011;8325;49.284;7.238;2023-03-24T20:19:20;1.73;;;0.90;;
16430;SDS011;8325;49.284;7.238;2023-03-24T20:23:31;2.20;;;1.30;;
16430;SDS011;8325;49.284;7.238;2023-03-24T20:27:43;1.10;;;0.95;;
16430;SDS011;8325;49.284;7.238;2023-03-24T20:31:57;3.00;;;0.90;;
16430;SDS011;8325;49.284;7.238;2023-03-24T20:36:10;2.20;;;0.93;;
16430;SDS011;8325;49.284;7.238;2023-03-24T20:40:21;1.45;;;0.88;;
16430;SDS011;8325;49.284;7.238;2023-03-24T20:44:34;2.88;;;0.88;;
16430;SDS011;8325;49.284;7.238;2023-03-24T20:48:46;2.40;;;1.23;;
16430;SDS011;8325;49.284;7.238;2023-03-24T20:52:58;2.20;;;1.40;;
16430;SDS011;8325;49.284;7.238;2023-03-24T20:57:09;3.13;;;1.33;;
16430;SDS011;8325;49.284;7.238;2023-03-24T21:01:22;3.40;;;1.58;;
16430;SDS011;8325;49.284;7.238;2023-03-24T21:05:34;2.72;;;1.48;;
16430;SDS011;8325;49.284;7.238;2023-03-24T21:09:46;3.10;;;1.02;;
16430;SDS011;8325;49.284;7.238;2023-03-24T21:13:58;3.80;;;1.30;;
16430;SDS011;8325;49.284;7.238;2023-03-24T21:18:10;3.55;;;1.17;;
16430;SDS011;8325;49.284;7.238;2023-03-24T21:22:21;2.40;;;0.93;;
16430;SDS011;8325;49.284;7.238;2023-03-24T21:26:35;2.58;;;1.00;;
16430;SDS011;8325;49.284;7.238;2023-03-24T21:30:46;1.98;;;0.77;;
16430;SDS011;8325;49.284;7.238;2023-03-24T21:34:58;1.80;;;0.98;;
16430;SDS011;8325;49.284;7.238;2023-03-24T21:39:10;4.03;;;1.20;;
16430;SDS011;8325;49.284;7.238;2023-03-24T21:43:22;2.67;;;0.70;;
16430;SDS011;8325;49.284;7.238;2023-03-24T21:47:33;2.67;;;0.77;;
16430;SDS011;8325;49.284;7.238;2023-03-24T21:51:46;1.75;;;0.80;;
16430;SDS011;8325;49.284;7.238;2023-03-24T21:55:58;3.08;;;1.00;;
16430;SDS011;8325;49.284;7.238;2023-03-24T22:00:17;4.45;;;1.42;;
16430;SDS011;8325;49.284;7.238;2023-03-24T22:04:33;4.88;;;1.30;;
16430;SDS011;8325;49.284;7.238;2023-03-24T22:08:48;1.65;;;0.77;;
16430;SDS011;8325;49.284;7.238;2023-03-24T22:13:01;6.03;;;1.50;;
16430;SDS011;8325;49.284;7.238;2023-03-24T22:17:13;3.28;;;0.70;;
16430;SDS011;8325;49.284;7.238;2023-03-24T22:21:25;1.80;;;0.70;;
16430;SDS011;8325;49.284;7.238;2023-03-24T22:25:37;3.92;;;0.73;;
16430;SDS011;8325;49.284;7.238;2023-03-24T22:29:54;1.95;;;0.80;;
